Time;durP1;ratioP1;P1;durP2;ratioP2;P2;SDS_P1;SDS_P2;PMS_P1;PMS_P2;Temp;Humidity;BMP_temperature;BMP_pressure;BME280_temperature;BME280_humidity;BME280_pressure;Samples;Min_cycle;Max_cycle;Signal;HPM_P1;HPM_P2
2022/02/24 00:02:23;;;;;;;12.10;4.75;;;;;;;3.98;53.84;95306.75;5090734;28;20024;-69
2022/02/24 00:04:49;;;;;;;11.52;4.60;;;;;;;3.91;54.27;95319.97;5089716;28;20020;-69
2022/02/24 00:07:14;;;;;;;10.50;4.38;;;;;;;3.87;54.64;95313.28;5072477;28;20475;-69
2022/02/24 00:09:40;;;;;;;10.90;5.00;;;;;;;3.98;54.78;95309.31;5089511;28;20035;-69
2022/02/24 00:12:06;;;;;;;9.05;5.15;;;;;;;3.88;54.77;95305.53;5089456;28;20036;-69
2022/02/24 00:14:31;;;;;;;8.85;4.00;;;;;;;3.87;54.98;95306.41;5072699;28;20032;-69
2022/02/24 00:16:57;;;;;;;12.07;4.60;;;;;;;3.87;54.56;95308.16;5072596;28;20040;-69
2022/02/24 00:19:22;;;;;;;13.50;4.43;;;;;;;3.90;55.38;95302.88;5072661;28;20032;-69
2022/02/24 00:21:47;;;;;;;13.80;5.35;;;;;;;3.97;54.84;95306.81;5055747;28;20038;-69
2022/02/24 00:24:13;;;;;;;9.13;4.57;;;;;;;3.99;55.21;95298.13;5072693;28;20035;-69
2022/02/24 00:26:38;;;;;;;11.50;5.18;;;;;;;3.99;55.12;95297.28;5090456;28;20035;-68
2022/02/24 00:29:04;;;;;;;9.40;4.85;;;;;;;3.99;55.12;95287.84;5090482;28;20032;-69
2022/02/24 00:31:29;;;;;;;10.85;5.68;;;;;;;4.00;55.17;95279.19;5072506;28;20032;-69
2022/02/24 00:33:55;;;;;;;11.50;4.72;;;;;;;3.95;55.08;95291.44;5072551;28;20043;-69
2022/02/24 00:36:20;;;;;;;12.15;5.15;;;;;;;3.97;55.33;95293.97;5089009;28;20059;-69
2022/02/24 00:38:46;;;;;;;10.07;4.60;;;;;;;3.86;55.64;95297.03;5090810;28;20494;-69
2022/02/24 00:41:11;;;;;;;15.63;4.93;;;;;;;3.93;55.83;95293.28;5073538;28;20054;-69
2022/02/24 00:43:36;;;;;;;10.23;4.60;;;;;;;3.95;55.36;95291.44;5070117;28;20552;-69
2022/02/24 00:46:03;;;;;;;12.13;4.93;;;;;;;3.85;55.76;95279.16;5071374;28;20031;-69
2022/02/24 00:48:28;;;;;;;12.07;5.03;;;;;;;3.84;55.62;95278.28;5072715;28;20032;-69
2022/02/24 00:50:54;;;;;;;15.07;5.32;;;;;;;3.87;55.93;95277.31;5072484;28;20027;-69
2022/02/24 00:53:19;;;;;;;10.52;4.97;;;;;;;3.81;55.52;95268.16;5072677;28;20041;-69
2022/02/24 00:55:45;;;;;;;9.45;4.82;;;;;;;3.73;55.50;95276.28;5072422;28;20025;-70
2022/02/24 00:58:10;;;;;;;8.45;4.95;;;;;;;3.77;55.66;95282.09;5072351;28;20029;-69
2022/02/24 01:00:35;;;;;;;11.75;4.40;;;;;;;3.77;55.87;95280.34;5072306;28;20100;-69
2022/02/24 01:03:01;;;;;;;9.85;5.05;;;;;;;3.85;55.54;95284.28;5072417;28;20040;-69
2022/02/24 01:05:26;;;;;;;8.25;4.18;;;;;;;3.80;55.55;95281.94;5072219;28;20028;-69
2022/02/24 01:07:52;;;;;;;11.65;4.25;;;;;;;3.80;55.53;95281.94;5072149;28;20055;-69
2022/02/24 01:10:17;;;;;;;9.57;4.40;;;;;;;3.76;55.44;95281.25;5073394;28;20028;-69
2022/02/24 01:12:43;;;;;;;9.23;3.95;;;;;;;3.79;55.78;95267.44;5073392;28;20044;-69
2022/02/24 01:15:09;;;;;;;10.63;4.80;;;;;;;3.85;55.77;95284.28;5073339;28;20020;-69
2022/02/24 01:17:37;;;;;;;11.98;4.22;;;;;;;3.63;55.67;95276.78;5072030;28;20035;-69
2022/02/24 01:20:04;;;;;;;8.77;4.38;;;;;;;3.73;55.57;95276.28;5055635;28;20452;-69
2022/02/24 01:22:29;;;;;;;9.52;4.25;;;;;;;3.73;55.94;95275.41;5055368;28;20051;-69
2022/02/24 01:24:55;;;;;;;6.43;3.97;;;;;;;3.71;55.85;95278.06;5055207;28;20024;-69
2022/02/24 01:27:20;;;;;;;8.80;4.55;;;;;;;3.73;55.43;95278.84;5073033;28;20024;-69
2022/02/24 01:29:46;;;;;;;9.15;3.90;;;;;;;3.51;55.96;95276.47;5055013;28;20032;-69
2022/02/24 01:32:11;;;;;;;6.03;3.65;;;;;;;3.54;56.16;95271.19;5071803;28;20036;-69
2022/02/24 01:34:36;;;;;;;10.38;4.60;;;;;;;3.51;56.40;95276.47;5071801;28;20032;-69
2022/02/24 01:37:02;;;;;;;12.55;4.07;;;;;;;3.43;55.74;95282.88;5071613;28;20055;-69
2022/02/24 01:39:28;;;;;;;11.77;4.30;;;;;;;3.36;56.36;95266.91;5071830;28;20475;-69
2022/02/24 01:41:55;;;;;;;12.95;5.00;;;;;;;3.22;56.09;95282.13;5071565;28;20036;-69
2022/02/24 01:44:21;;;;;;;8.40;4.15;;;;;;;3.19;56.35;95287.41;5055418;28;20054;-69
2022/02/24 01:46:46;;;;;;;10.15;4.80;;;;;;;3.28;56.09;95281.84;5072608;28;20036;-69
2022/02/24 01:49:11;;;;;;;8.68;3.97;;;;;;;3.28;56.06;95285.22;5038308;28;20033;-69
2022/02/24 01:51:37;;;;;;;5.47;3.78;;;;;;;3.26;56.07;95278.50;5071420;28;20027;-69
2022/02/24 01:54:04;;;;;;;10.02;4.40;;;;;;;3.29;56.31;95288.66;5071562;28;20039;-69
2022/02/24 01:56:30;;;;;;;11.80;4.65;;;;;;;3.20;55.87;95287.31;5071628;28;20028;-69
2022/02/24 01:58:55;;;;;;;9.90;4.15;;;;;;;3.16;55.84;95269.59;5070654;28;20110;-69
2022/02/24 02:01:21;;;;;;;8.23;3.65;;;;;;;3.11;55.65;95272.34;5071176;28;20028;-69
2022/02/24 02:03:48;;;;;;;9.40;4.32;;;;;;;3.13;55.36;95270.56;5056184;28;20064;-69
2022/02/24 02:06:14;;;;;;;9.57;3.70;;;;;;;3.13;55.09;95273.97;5073075;28;20024;-69
2022/02/24 02:08:39;;;;;;;14.65;4.32;;;;;;;3.13;55.21;95273.97;5074457;28;20047;-69
2022/02/24 02:11:05;;;;;;;8.60;4.72;;;;;;;3.10;55.33;95279.22;5074362;28;20024;-70
2022/02/24 02:13:34;;;;;;;11.25;4.32;;;;;;;3.06;54.56;95271.72;5074386;28;20032;-69
2022/02/24 02:15:59;;;;;;;8.50;3.95;;;;;;;3.05;55.06;95272.66;5091155;28;20028;-69
2022/02/24 02:18:25;;;;;;;11.98;4.03;;;;;;;3.11;55.23;95280.06;5074457;28;20228;-69
2022/02/24 02:20:51;;;;;;;14.90;6.32;;;;;;;3.13;54.84;95276.53;5074176;28;20023;-69
2022/02/24 02:23:17;;;;;;;16.25;6.80;;;;;;;3.11;55.75;95280.88;5092460;28;20040;-69
2022/02/24 02:25:42;;;;;;;12.02;5.05;;;;;;;3.02;55.80;95275.34;5073920;28;20165;-69
2022/02/24 02:28:08;;;;;;;8.10;3.58;;;;;;;2.79;55.86;95273.84;5057441;28;20160;-69
2022/02/24 02:30:33;;;;;;;8.68;4.00;;;;;;;2.81;55.60;95284.84;5073860;28;20016;-68
2022/02/24 02:32:58;;;;;;;10.63;3.92;;;;;;;2.74;56.42;95286.03;5074062;28;20040;-69
2022/02/24 02:35:24;;;;;;;10.43;4.05;;;;;;;2.80;56.39;95289.16;5091949;28;20482;-69
2022/02/24 02:37:50;;;;;;;12.65;4.35;;;;;;;2.76;56.29;95284.22;5073969;28;20059;-70
2022/02/24 02:40:15;;;;;;;8.63;4.32;;;;;;;2.79;56.91;95278.97;5065914;28;20012;-69
2022/02/24 02:42:41;;;;;;;11.95;4.38;;;;;;;2.68;56.95;95294.84;5070368;28;20086;-69
2022/02/24 02:45:07;;;;;;;9.18;3.75;;;;;;;2.65;57.23;95295.81;5070361;28;20494;-69
2022/02/24 02:47:32;;;;;;;7.78;4.05;;;;;;;2.61;57.54;95293.44;5070262;28;20487;-69
2022/02/24 02:49:58;;;;;;;10.15;4.25;;;;;;;2.65;56.92;95298.38;5070199;28;20028;-69
2022/02/24 02:52:23;;;;;;;10.48;4.10;;;;;;;2.58;57.49;95294.41;5070196;28;20031;-69
2022/02/24 02:54:51;;;;;;;7.93;4.50;;;;;;;2.62;57.62;95290.81;5053383;28;20516;-69
2022/02/24 02:57:16;;;;;;;6.63;4.30;;;;;;;2.42;57.35;95298.53;5053674;28;20052;-69
2022/02/24 02:59:41;;;;;;;9.00;4.20;;;;;;;2.49;57.34;95296.56;5070114;28;20036;-69
2022/02/24 03:02:07;;;;;;;17.00;4.68;;;;;;;2.39;57.85;95294.34;5053390;28;20399;-69
2022/02/24 03:04:32;;;;;;;14.15;4.95;;;;;;;2.30;57.83;95278.56;5053533;28;20029;-69
2022/02/24 03:06:58;;;;;;;12.70;4.18;;;;;;;2.41;57.78;95291.75;5069890;28;20434;-69
2022/02/24 03:09:23;;;;;;;9.60;3.90;;;;;;;2.47;57.80;95296.59;5053359;28;20024;-69
2022/02/24 03:11:49;;;;;;;16.33;4.80;;;;;;;2.47;57.30;95299.16;5071054;28;20562;-69
2022/02/24 03:14:14;;;;;;;7.97;4.03;;;;;;;2.47;56.79;95301.72;5070076;28;20025;-69
2022/02/24 03:16:40;;;;;;;11.48;4.25;;;;;;;2.52;56.98;95294.69;5069773;28;20458;-69
2022/02/24 03:19:05;;;;;;;11.02;4.35;;;;;;;2.51;56.76;95308.41;5071435;28;20048;-68
2022/02/24 03:21:31;;;;;;;9.10;4.38;;;;;;;2.45;57.02;95306.09;5053066;28;20020;-69
2022/02/24 03:23:56;;;;;;;10.40;3.95;;;;;;;2.44;57.16;95307.00;5070000;28;20058;-69
2022/02/24 03:26:21;;;;;;;14.70;5.28;;;;;;;2.48;56.61;95316.25;5070852;28;20036;-69
2022/02/24 03:28:47;;;;;;;14.75;6.90;;;;;;;2.44;56.80;95318.09;5069695;28;20024;-69
2022/02/24 03:31:12;;;;;;;14.73;7.05;;;;;;;2.39;57.10;95317.44;5070875;28;20098;-69
2022/02/24 03:33:38;;;;;;;11.57;5.72;;;;;;;2.42;56.53;95319.03;5069823;28;20414;-68
2022/02/24 03:36:03;;;;;;;7.43;3.90;;;;;;;2.34;56.39;95321.97;5052699;28;20024;-70
2022/02/24 03:38:29;;;;;;;8.18;3.65;;;;;;;2.28;56.84;95327.31;5069829;28;20032;-69
2022/02/24 03:40:54;;;;;;;10.75;4.40;;;;;;;2.32;57.37;95322.91;5062451;28;20043;-69
2022/02/24 03:43:20;;;;;;;12.10;4.55;;;;;;;2.33;56.86;95329.69;5086377;28;20032;-69
2022/02/24 03:45:45;;;;;;;8.55;4.07;;;;;;;2.39;56.53;95332.81;5070617;28;20410;-69
2022/02/24 03:48:11;;;;;;;9.07;4.53;;;;;;;2.36;56.19;95334.69;5069598;28;20033;-69
2022/02/24 03:50:37;;;;;;;8.88;4.53;;;;;;;2.36;56.78;95340.66;5070625;28;20026;-69
2022/02/24 03:53:02;;;;;;;10.38;4.10;;;;;;;2.36;56.43;95338.09;5069527;28;20047;-69
2022/02/24 03:55:28;;;;;;;9.27;4.75;;;;;;;2.33;56.91;95339.97;5069429;28;20025;-69
2022/02/24 03:57:53;;;;;;;10.73;4.60;;;;;;;2.33;56.76;95345.09;5070704;28;20483;-69
2022/02/24 04:00:20;;;;;;;15.15;5.68;;;;;;;2.34;56.85;95339.03;5069370;28;20017;-69
2022/02/24 04:02:46;;;;;;;15.73;5.90;;;;;;;2.32;55.99;95346.00;5070705;28;20032;-69
2022/02/24 04:05:13;;;;;;;15.20;6.05;;;;;;;2.21;56.93;95351.56;5052553;28;20035;-69
2022/02/24 04:07:38;;;;;;;11.57;5.70;;;;;;;2.19;57.38;95343.94;5069212;28;20043;-69
2022/02/24 04:10:04;;;;;;;8.95;5.00;;;;;;;2.39;56.26;95340.53;5070544;28;20025;-68
2022/02/24 04:12:30;;;;;;;13.27;6.32;;;;;;;2.28;56.35;95341.88;5069619;28;20334;-69
2022/02/24 04:14:55;;;;;;;12.43;5.35;;;;;;;2.25;56.49;95342.84;5070414;28;20032;-69
2022/02/24 04:17:20;;;;;;;11.93;6.32;;;;;;;2.16;57.45;95341.50;5069213;28;20025;-69
2022/02/24 04:19:46;;;;;;;13.07;6.47;;;;;;;2.20;57.25;95344.75;5052360;28;20431;-69
2022/02/24 04:22:11;;;;;;;15.10;6.25;;;;;;;2.15;57.00;95336.44;5055974;28;20020;-69
2022/02/24 04:24:37;;;;;;;16.15;7.55;;;;;;;2.22;56.75;95342.97;5073060;28;20039;-69
2022/02/24 04:27:02;;;;;;;11.77;5.82;;;;;;;2.19;57.00;95348.22;5056234;28;20554;-69
2022/02/24 04:29:28;;;;;;;13.82;8.18;;;;;;;2.19;56.05;95338.78;5056613;28;20094;-69
2022/02/24 04:31:53;;;;;;;14.20;8.88;;;;;;;2.23;56.26;95340.34;5072784;28;20036;-69
2022/02/24 04:34:19;;;;;;;13.07;7.32;;;;;;;2.24;56.21;95347.13;5072855;28;20473;-69
2022/02/24 04:36:44;;;;;;;14.88;6.88;;;;;;;2.30;55.94;95345.22;5073757;28;20040;-69
2022/02/24 04:39:10;;;;;;;10.30;5.03;;;;;;;2.32;55.93;95348.56;5072783;28;20600;-69
2022/02/24 04:41:35;;;;;;;9.50;4.57;;;;;;;2.18;56.34;95339.69;5088209;28;20032;-69
2022/02/24 04:44:00;;;;;;;7.80;4.43;;;;;;;2.13;56.20;95356.16;5074241;28;20029;-69
2022/02/24 04:46:26;;;;;;;7.70;4.50;;;;;;;2.29;56.22;95356.38;5055781;28;20031;-69
2022/02/24 04:48:51;;;;;;;11.80;5.05;;;;;;;2.25;55.88;95358.22;5072740;28;20040;-69
2022/02/24 04:51:17;;;;;;;9.60;4.97;;;;;;;2.21;55.67;95366.94;5073757;28;20025;-69
2022/02/24 04:53:42;;;;;;;14.35;6.25;;;;;;;2.22;56.19;95374.56;5072638;28;20044;-69
2022/02/24 04:56:07;;;;;;;14.02;5.07;;;;;;;2.09;56.14;95368.28;5073648;28;20498;-69
2022/02/24 04:58:33;;;;;;;17.52;6.78;;;;;;;2.26;55.90;95382.13;5072507;28;20037;-69
2022/02/24 05:00:59;;;;;;;14.18;6.85;;;;;;;2.19;56.18;95369.56;5072368;28;20024;-69
2022/02/24 05:03:24;;;;;;;10.63;5.00;;;;;;;2.13;56.10;95372.38;5072476;28;20036;-69
2022/02/24 05:05:49;;;;;;;11.98;4.97;;;;;;;2.24;55.62;95377.06;5089018;28;20031;-69
2022/02/24 05:08:15;;;;;;;8.15;4.03;;;;;;;2.27;55.79;95388.94;5073399;28;20040;-69
2022/02/24 05:10:40;;;;;;;10.07;4.93;;;;;;;2.26;55.44;95387.25;5073371;28;20410;-68
2022/02/24 05:13:06;;;;;;;10.10;4.80;;;;;;;2.31;55.57;95398.16;5072316;28;20537;-69
2022/02/24 05:15:31;;;;;;;8.88;3.80;;;;;;;2.32;55.73;95405.78;5072121;28;20474;-69
2022/02/24 05:17:57;;;;;;;9.13;4.78;;;;;;;2.34;55.90;95398.88;5074834;28;20505;-69
2022/02/24 05:20:22;;;;;;;11.55;5.35;;;;;;;2.32;55.72;95407.53;5069818;28;20490;-69
2022/02/24 05:22:48;;;;;;;14.23;6.57;;;;;;;2.40;56.00;95408.06;5071918;28;20413;-68
2022/02/24 05:25:14;;;;;;;23.58;9.52;;;;;;;2.53;55.33;95410.91;5088034;28;20024;-69
2022/02/24 05:27:42;;;;;;;17.05;7.25;;;;;;;2.59;54.79;95411.53;5073422;28;20093;-69
2022/02/24 05:30:08;;;;;;;10.45;4.78;;;;;;;2.61;54.89;95411.44;5085896;28;20039;-69
2022/02/24 05:32:34;;;;;;;13.00;5.07;;;;;;;2.53;54.76;95409.19;5087869;28;20032;-69
2022/02/24 05:34:59;;;;;;;9.68;4.35;;;;;;;2.50;54.39;95419.56;5071001;28;20418;-69
2022/02/24 05:37:27;;;;;;;9.82;4.25;;;;;;;2.55;54.56;95433.06;5075074;28;20564;-69
2022/02/24 05:39:55;;;;;;;6.53;3.90;;;;;;;2.50;54.51;95429.84;5085001;28;20086;-69
2022/02/24 05:42:21;;;;;;;8.85;3.83;;;;;;;2.58;54.79;95443.19;5053387;28;20391;-69
2022/02/24 05:44:46;;;;;;;9.93;4.30;;;;;;;2.66;54.55;95437.72;5087671;28;20039;-69
2022/02/24 05:47:12;;;;;;;6.60;4.00;;;;;;;2.75;54.28;95444.22;5068752;28;20053;-69
2022/02/24 05:49:38;;;;;;;11.48;4.15;;;;;;;2.80;54.47;95442.28;5087105;28;20020;-68
2022/02/24 05:52:06;;;;;;;8.98;4.13;;;;;;;2.72;53.89;95450.31;5089050;28;20107;-68
2022/02/24 05:54:32;;;;;;;8.13;3.95;;;;;;;2.74;54.24;95451.06;5085622;28;20036;-69
2022/02/24 05:56:58;;;;;;;11.77;4.63;;;;;;;2.74;54.57;95452.81;5087189;28;20109;-70
2022/02/24 05:59:23;;;;;;;10.90;4.60;;;;;;;2.89;54.81;95454.72;5083996;28;20113;-70
2022/02/24 06:01:49;;;;;;;12.63;4.32;;;;;;;2.78;54.48;95449.22;5084900;28;20028;-70
2022/02/24 06:04:14;;;;;;;9.82;4.93;;;;;;;2.84;54.28;95454.06;5078515;28;20028;-69
2022/02/24 06:06:39;;;;;;;11.23;4.22;;;;;;;2.80;54.42;95453.38;5064760;28;20430;-69
2022/02/24 06:09:05;;;;;;;11.90;4.35;;;;;;;2.81;54.40;95455.03;5086067;28;20032;-69
2022/02/24 06:11:30;;;;;;;10.73;4.78;;;;;;;2.81;54.35;95441.38;5077452;28;20122;-69
2022/02/24 06:13:56;;;;;;;11.70;4.45;;;;;;;2.97;53.50;95452.66;5081759;28;20055;-69
2022/02/24 06:16:21;;;;;;;11.73;4.43;;;;;;;2.98;53.54;95446.66;5080568;28;20070;-68
2022/02/24 06:18:47;;;;;;;8.05;4.20;;;;;;;2.98;53.43;95461.19;5082623;28;20032;-69
2022/02/24 06:21:12;;;;;;;8.30;4.40;;;;;;;2.91;53.21;95461.47;5069574;28;20043;-69
2022/02/24 06:23:38;;;;;;;13.38;5.22;;;;;;;2.93;53.89;95458.84;5086919;28;20035;-69
2022/02/24 06:26:03;;;;;;;10.25;4.78;;;;;;;2.90;53.91;95470.06;5086511;28;20476;-69
2022/02/24 06:28:28;;;;;;;10.10;4.97;;;;;;;2.96;52.95;95466.41;5083816;28;20039;-68
2022/02/24 06:30:54;;;;;;;17.13;5.38;;;;;;;2.91;53.30;95469.16;5087194;28;20024;-69
2022/02/24 06:33:19;;;;;;;10.45;5.85;;;;;;;2.88;54.05;95471.03;5085953;28;20426;-68
2022/02/24 06:35:45;;;;;;;13.10;4.97;;;;;;;2.98;53.41;95477.44;5081975;28;20031;-68
2022/02/24 06:38:11;;;;;;;9.95;5.30;;;;;;;3.03;53.31;95472.94;5085241;28;20048;-69
2022/02/24 06:40:37;;;;;;;11.63;5.22;;;;;;;2.93;53.19;95473.41;5085690;28;20039;-69
2022/02/24 06:43:02;;;;;;;8.88;5.68;;;;;;;2.97;53.43;95478.34;5087494;28;20460;-69
2022/02/24 06:45:28;;;;;;;9.07;5.00;;;;;;;3.05;53.20;95486.53;5086006;28;20391;-69
2022/02/24 06:47:54;;;;;;;10.05;4.93;;;;;;;3.03;52.79;95490.06;5080681;28;20040;-69
2022/02/24 06:50:19;;;;;;;10.70;4.90;;;;;;;2.89;52.52;95485.53;5061880;28;20043;-69
2022/02/24 06:52:45;;;;;;;10.93;6.05;;;;;;;2.96;52.81;95486.13;5079037;28;20029;-69
2022/02/24 06:55:10;;;;;;;12.05;5.80;;;;;;;2.94;52.16;95493.03;5071074;28;20039;-69
2022/02/24 06:57:37;;;;;;;12.40;5.85;;;;;;;2.96;53.51;95499.78;5085737;28;20051;-69
2022/02/24 07:00:03;;;;;;;12.25;5.10;;;;;;;2.99;52.67;95504.78;5080757;28;20127;-69
2022/02/24 07:02:29;;;;;;;12.30;5.15;;;;;;;3.07;53.54;95500.16;5084933;28;20042;-69
2022/02/24 07:04:54;;;;;;;11.00;5.03;;;;;;;3.09;52.98;95500.94;5086039;28;20032;-70
2022/02/24 07:07:19;;;;;;;12.45;5.72;;;;;;;3.00;52.63;95480.75;5068312;28;20090;-70
2022/02/24 07:09:45;;;;;;;10.95;5.85;;;;;;;3.21;52.41;95497.00;5085460;28;20020;-69
2022/02/24 07:12:10;;;;;;;16.23;6.55;;;;;;;3.20;52.27;95497.06;5083228;28;20486;-69
2022/02/24 07:14:36;;;;;;;10.43;5.88;;;;;;;3.19;52.69;95491.09;5087663;28;20039;-69
2022/02/24 07:17:01;;;;;;;16.77;7.10;;;;;;;3.28;52.39;95503.53;5083765;28;20028;-71
2022/02/24 07:19:26;;;;;;;11.48;6.03;;;;;;;3.40;52.43;95499.59;5081661;28;20036;-69
2022/02/24 07:21:52;;;;;;;12.90;7.30;;;;;;;3.42;52.17;95492.66;5083241;28;20108;-69
2022/02/24 07:24:17;;;;;;;19.58;8.05;;;;;;;3.48;51.38;95500.09;5085501;28;20032;-69
2022/02/24 07:26:43;;;;;;;14.30;8.55;;;;;;;3.49;51.13;95500.94;5080422;28;20484;-69
2022/02/24 07:29:08;;;;;;;10.07;6.30;;;;;;;3.52;50.96;95500.81;5074095;28;20113;-69
2022/02/24 07:31:34;;;;;;;14.75;8.38;;;;;;;3.59;51.47;95504.75;5081214;28;20032;-69
2022/02/24 07:34:04;;;;;;;14.45;8.40;;;;;;;3.63;51.22;95500.31;5081268;28;20036;-69
2022/02/24 07:36:33;;;;;;;11.40;6.33;;;;;;;3.64;51.28;95502.81;5067243;28;20498;-69
2022/02/24 07:38:58;;;;;;;10.60;5.40;;;;;;;3.70;50.57;95499.13;5072211;28;20039;-69
2022/02/24 07:41:23;;;;;;;8.32;4.72;;;;;;;3.80;50.08;95502.97;5072884;28;20016;-68
2022/02/24 07:43:49;;;;;;;11.98;7.32;;;;;;;3.75;50.01;95502.34;5072692;28;20047;-68
2022/02/24 07:46:14;;;;;;;8.50;4.70;;;;;;;3.68;50.63;95506.09;5085119;28;20410;-68
2022/02/24 07:48:40;;;;;;;13.32;5.57;;;;;;;3.74;49.87;95511.78;5073211;28;20202;-68
2022/02/24 07:51:05;;;;;;;9.18;4.70;;;;;;;3.75;50.46;95505.72;5073851;28;20407;-68
2022/02/24 07:53:31;;;;;;;13.35;8.43;;;;;;;3.80;49.82;95514.06;5068790;28;20090;-69
2022/02/24 07:55:56;;;;;;;13.90;6.47;;;;;;;3.88;50.22;95506.03;5051891;28;20483;-68
2022/02/24 07:58:21;;;;;;;18.55;11.57;;;;;;;3.80;49.54;95508.09;5072716;28;20482;-68
2022/02/24 08:00:47;;;;;;;13.88;9.68;;;;;;;3.80;49.66;95502.97;5074725;28;20020;-69
2022/02/24 08:03:12;;;;;;;12.07;6.15;;;;;;;3.73;50.00;95506.69;5074929;28;20041;-69
2022/02/24 08:05:38;;;;;;;14.02;8.55;;;;;;;3.86;50.31;95507.81;5073411;28;20036;-68
2022/02/24 08:08:03;;;;;;;16.92;8.57;;;;;;;3.94;49.49;95510.88;5056615;28;20089;-68
2022/02/24 08:10:30;;;;;;;20.45;11.68;;;;;;;3.94;49.52;95504.91;5074851;28;20021;-68
2022/02/24 08:12:55;;;;;;;19.65;10.98;;;;;;;3.99;50.54;95511.50;5074691;28;20064;-68
2022/02/24 08:15:21;;;;;;;16.52;7.43;;;;;;;3.86;50.16;95510.38;5073238;28;20023;-68
2022/02/24 08:17:48;;;;;;;12.55;7.38;;;;;;;3.92;50.20;95512.69;5073241;28;20029;-68
2022/02/24 08:20:14;;;;;;;11.68;5.25;;;;;;;3.94;49.38;95507.47;5056500;28;20413;-68
2022/02/24 08:22:41;;;;;;;14.80;6.88;;;;;;;3.90;49.86;95508.50;5074607;28;20043;-68
2022/02/24 08:25:08;;;;;;;15.65;7.72;;;;;;;3.87;49.70;95501.75;5074237;28;20117;-68
2022/02/24 08:27:37;;;;;;;12.00;6.65;;;;;;;3.97;50.12;95499.63;5072954;28;20583;-68
2022/02/24 08:30:04;;;;;;;15.10;6.78;;;;;;;4.03;49.80;95505.31;5056878;28;20024;-68
2022/02/24 08:32:29;;;;;;;13.40;6.45;;;;;;;4.10;49.74;95505.88;5073212;28;20036;-68
2022/02/24 08:34:56;;;;;;;13.88;6.80;;;;;;;4.16;49.41;95509.91;5072861;28;20036;-68
2022/02/24 08:37:21;;;;;;;13.07;5.75;;;;;;;4.19;49.42;95512.31;5072848;28;20044;-68
2022/02/24 08:39:47;;;;;;;12.32;5.75;;;;;;;4.07;49.12;95510.31;5072656;28;20031;-68
2022/02/24 08:42:12;;;;;;;11.50;5.45;;;;;;;4.13;49.40;95515.19;5073932;28;20033;-69
2022/02/24 08:44:39;;;;;;;11.60;6.63;;;;;;;4.12;48.98;95514.31;5055987;28;20035;-68
2022/02/24 08:47:06;;;;;;;14.07;6.72;;;;;;;4.11;49.35;95515.25;5072560;28;20031;-69
2022/02/24 08:49:31;;;;;;;20.33;8.73;;;;;;;3.97;49.15;95518.44;5073756;28;20029;-68
2022/02/24 08:51:56;;;;;;;38.30;18.20;;;;;;;3.98;48.42;95521.84;5073698;28;20029;-68
2022/02/24 08:54:22;;;;;;;203.80;62.33;;;;;;;3.97;49.17;95515.88;5072708;28;20040;-68
2022/02/24 08:56:47;;;;;;;47.33;18.58;;;;;;;4.06;49.33;95518.94;5039039;28;20040;-68
2022/02/24 08:59:13;;;;;;;16.00;7.78;;;;;;;4.05;48.68;95523.25;5055817;28;20074;-69
2022/02/24 09:01:38;;;;;;;12.05;5.07;;;;;;;4.01;49.11;95517.41;5073604;28;20406;-68
2022/02/24 09:04:04;;;;;;;12.40;6.95;;;;;;;4.06;49.18;95513.78;5074074;28;20024;-68
2022/02/24 09:06:29;;;;;;;11.52;5.45;;;;;;;4.00;49.33;95522.63;5055303;28;20032;-68
2022/02/24 09:08:54;;;;;;;13.35;9.10;;;;;;;4.03;49.69;95520.72;5073907;28;20090;-68
2022/02/24 09:11:24;;;;;;;14.45;7.45;;;;;;;4.13;49.76;95525.47;5073403;28;20043;-68
2022/02/24 09:13:49;;;;;;;16.15;6.20;;;;;;;4.09;50.53;95529.91;5073345;28;20048;-68
2022/02/24 09:16:14;;;;;;;15.75;8.68;;;;;;;3.99;50.46;95521.78;5072156;28;20120;-68
2022/02/24 09:18:40;;;;;;;15.55;8.07;;;;;;;4.01;51.71;95529.41;5072232;28;20040;-68
2022/02/24 09:21:06;;;;;;;7.70;5.53;;;;;;;4.12;52.95;95523.78;5073227;28;20498;-68
2022/02/24 09:23:33;;;;;;;8.82;5.35;;;;;;;4.21;54.45;95518.25;5073501;28;20493;-68
2022/02/24 09:25:59;;;;;;;8.85;4.20;;;;;;;4.30;54.93;95522.94;5073082;28;20024;-68
2022/02/24 09:28:24;;;;;;;5.50;3.30;;;;;;;4.22;55.23;95523.28;5072051;28;20043;-68
2022/02/24 09:30:49;;;;;;;6.15;3.45;;;;;;;4.17;55.55;95522.66;5073029;28;20044;-68
2022/02/24 09:33:15;;;;;;;7.07;3.15;;;;;;;4.19;55.74;95525.19;5073282;28;20024;-68
2022/02/24 09:35:40;;;;;;;5.28;3.03;;;;;;;4.23;55.98;95524.97;5055063;28;20029;-68
2022/02/24 09:38:06;;;;;;;7.63;6.05;;;;;;;4.37;56.07;95515.75;5073211;28;20518;-68
2022/02/24 09:40:32;;;;;;;11.40;5.95;;;;;;;4.46;55.57;95523.06;5055011;28;20032;-68
2022/02/24 09:42:58;;;;;;;8.60;5.10;;;;;;;4.49;55.61;95522.91;5073034;28;20037;-68
2022/02/24 09:45:23;;;;;;;4.25;2.42;;;;;;;4.72;54.58;95523.53;5071838;28;20025;-68
2022/02/24 09:47:50;;;;;;;6.85;3.63;;;;;;;4.71;54.83;95520.16;5071343;28;20074;-68
2022/02/24 09:50:16;;;;;;;5.40;4.20;;;;;;;4.62;55.43;95518.00;5071512;28;20103;-68
2022/02/24 09:52:41;;;;;;;8.73;5.40;;;;;;;4.50;55.83;95508.31;5054653;28;20036;-68
2022/02/24 09:55:07;;;;;;;5.90;4.00;;;;;;;4.56;55.56;95516.56;5072576;28;20483;-68
2022/02/24 09:57:33;;;;;;;8.25;4.82;;;;;;;4.68;55.84;95509.97;5071397;28;20067;-68
2022/02/24 09:59:58;;;;;;;8.55;5.93;;;;;;;4.74;55.35;95512.28;5071302;28;20032;-68
2022/02/24 10:02:24;;;;;;;3.97;2.60;;;;;;;5.00;53.43;95503.25;5071220;28;20025;-68
2022/02/24 10:05:22;;;;;;;4.25;2.40;;;;;;;5.04;52.87;95499.63;5054408;28;20024;-68
2022/02/24 10:07:49;;;;;;;5.25;2.28;;;;;;;4.83;53.56;95501.50;5060213;28;20044;-68
2022/02/24 10:10:25;;;;;;;5.25;3.45;;;;;;;4.67;55.03;95492.88;5071098;28;20028;-68
2022/02/24 10:13:09;;;;;;;9.70;5.35;;;;;;;4.75;54.54;95485.63;5071086;28;20067;-69
2022/02/24 10:15:39;;;;;;;16.75;7.55;;;;;;;4.80;54.69;95482.81;5071004;28;20032;-68
2022/02/24 10:18:05;;;;;;;8.73;4.47;;;;;;;4.82;53.88;95484.41;5070527;28;20040;-68
2022/02/24 10:20:38;;;;;;;7.45;3.80;;;;;;;4.86;54.75;95478.19;5072034;28;20471;-68
2022/02/24 10:23:03;;;;;;;9.35;5.35;;;;;;;4.80;54.41;95463.06;5072255;28;20435;-68
2022/02/24 10:25:35;;;;;;;7.35;4.40;;;;;;;4.96;53.30;95463.13;5071989;28;20025;-68
2022/02/24 10:28:01;;;;;;;9.45;4.15;;;;;;;5.14;52.91;95463.94;5055160;28;20055;-68
2022/02/24 10:30:28;;;;;;;9.30;4.93;;;;;;;5.16;52.73;95462.09;5070672;28;20025;-68
2022/02/24 10:32:55;;;;;;;4.00;2.22;;;;;;;5.29;50.03;95465.72;5071942;28;20474;-68
2022/02/24 10:35:40;;;;;;;6.70;3.30;;;;;;;5.17;51.25;95461.19;5070686;28;20036;-68
2022/02/24 10:38:06;;;;;;;5.10;2.75;;;;;;;5.02;51.51;95460.22;5071847;28;20052;-68
2022/02/24 10:40:39;;;;;;;5.82;2.05;;;;;;;5.05;50.18;95448.94;5070464;28;20054;-68
2022/02/24 10:43:20;;;;;;;4.95;2.70;;;;;;;4.92;51.67;95457.28;5071885;28;20410;-68
2022/02/24 10:45:48;;;;;;;4.93;2.20;;;;;;;5.05;51.16;95461.81;5071648;28;20024;-68
2022/02/24 10:48:13;;;;;;;3.35;1.92;;;;;;;4.91;51.63;95453.06;5070411;28;20040;-69
2022/02/24 10:50:53;;;;;;;3.72;1.70;;;;;;;4.88;52.09;95450.63;5070280;28;20083;-68
2022/02/24 10:53:20;;;;;;;5.55;2.47;;;;;;;5.01;51.23;95452.56;5070396;28;20052;-68
2022/02/24 10:55:52;;;;;;;4.05;2.60;;;;;;;4.79;51.94;95438.22;5070169;28;20029;-68
2022/02/24 10:58:17;;;;;;;5.57;2.65;;;;;;;4.88;51.69;95452.38;5071624;28;20395;-68
2022/02/24 11:00:43;;;;;;;3.60;2.30;;;;;;;4.65;52.44;95444.06;5071315;28;20023;-68
2022/02/24 11:03:08;;;;;;;3.90;2.60;;;;;;;4.51;53.07;95438.75;5070196;28;20040;-68
2022/02/24 11:05:34;;;;;;;5.13;2.67;;;;;;;4.58;52.56;95444.44;5053330;28;20030;-68
2022/02/24 11:08:00;;;;;;;4.18;2.30;;;;;;;4.69;53.64;95437.84;5053436;28;20040;-68
2022/02/24 11:10:25;;;;;;;15.13;9.68;;;;;;;4.78;53.61;95440.88;5053326;28;20439;-68
2022/02/24 11:12:51;;;;;;;6.13;3.15;;;;;;;4.77;52.61;95429.75;5069903;28;20039;-68
2022/02/24 11:15:16;;;;;;;6.35;2.78;;;;;;;4.81;52.33;95435.56;5036630;28;20039;-68
2022/02/24 11:17:41;;;;;;;5.55;2.65;;;;;;;4.83;53.38;95419.13;5053175;28;20036;-68
2022/02/24 11:20:08;;;;;;;6.47;4.68;;;;;;;4.86;52.79;95418.16;5053199;28;20036;-68
2022/02/24 11:22:34;;;;;;;4.35;2.85;;;;;;;4.93;52.54;95420.34;5069771;28;20032;-68
2022/02/24 11:24:59;;;;;;;7.82;2.53;;;;;;;4.96;52.00;95409.06;5071004;28;20047;-68
2022/02/24 11:27:29;;;;;;;4.40;2.50;;;;;;;5.08;51.73;95412.72;5069719;28;20486;-68
2022/02/24 11:30:18;;;;;;;8.10;4.55;;;;;;;5.18;51.74;95408.75;5069584;28;20032;-68
2022/02/24 11:32:46;;;;;;;3.95;2.50;;;;;;;5.31;51.35;95409.78;5053454;28;20036;-68